sensor_id;sensor_type;location;lat;lon;timestamp;pressure;altitude;pressure_sealevel;temperature;humidity
34328;BME280;20588;48.840;10.064;2024-03-08T00:01:57;96405.00;;;2.34;nan
34328;BME280;20588;48.840;10.064;2024-03-08T00:04:23;96402.81;;;2.31;nan
34328;BME280;20588;48.840;10.064;2024-03-08T00:06:49;96409.63;;;2.31;nan
34328;BME280;20588;48.840;10.064;2024-03-08T00:09:16;96404.53;;;2.39;nan
34328;BME280;20588;48.840;10.064;2024-03-08T00:11:42;96402.16;;;2.29;nan
34328;BME280;20588;48.840;10.064;2024-03-08T00:14:08;96407.13;;;2.23;nan
34328;BME280;20588;48.840;10.064;2024-03-08T00:16:34;96405.19;;;2.33;nan
34328;BME280;20588;48.840;10.064;2024-03-08T00:19:01;96403.13;;;2.20;nan
34328;BME280;20588;48.840;10.064;2024-03-08T00:21:27;96402.97;;;2.14;nan
34328;BME280;20588;48.840;10.064;2024-03-08T00:23:53;96397.44;;;2.10;nan
34328;BME280;20588;48.840;10.064;2024-03-08T00:26:22;96403.28;;;2.11;nan
34328;BME280;20588;48.840;10.064;2024-03-08T00:28:49;96407.13;;;2.07;nan
34328;BME280;20588;48.840;10.064;2024-03-08T00:31:15;96394.28;;;2.00;nan
34328;BME280;20588;48.840;10.064;2024-03-08T00:33:44;96394.59;;;1.97;nan
34328;BME280;20588;48.840;10.064;2024-03-08T00:36:10;96391.28;;;1.97;nan
34328;BME280;20588;48.840;10.064;2024-03-08T00:38:36;96381.13;;;1.97;nan
34328;BME280;20588;48.840;10.064;2024-03-08T00:41:02;96379.06;;;1.92;nan
34328;BME280;20588;48.840;10.064;2024-03-08T00:43:28;96375.75;;;1.92;nan
34328;BME280;20588;48.840;10.064;2024-03-08T00:45:56;96381.78;;;1.91;nan
34328;BME280;20588;48.840;10.064;2024-03-08T00:48:23;96374.78;;;2.01;nan
34328;BME280;20588;48.840;10.064;2024-03-08T00:50:49;96375.09;;;1.89;nan
34328;BME280;20588;48.840;10.064;2024-03-08T00:53:16;96371.16;;;1.87;nan
34328;BME280;20588;48.840;10.064;2024-03-08T00:55:42;96374.81;;;1.84;nan
34328;BME280;20588;48.840;10.064;2024-03-08T00:58:08;96371.91;;;2.04;nan
34328;BME280;20588;48.840;10.064;2024-03-08T01:00:35;96369.56;;;1.86;nan
34328;BME280;20588;48.840;10.064;2024-03-08T01:03:01;96366.41;;;1.84;nan
34328;BME280;20588;48.840;10.064;2024-03-08T01:05:29;96364.19;;;1.89;nan
34328;BME280;20588;48.840;10.064;2024-03-08T01:07:55;96364.16;;;1.97;nan
34328;BME280;20588;48.840;10.064;2024-03-08T01:10:21;96351.28;;;2.15;nan
34328;BME280;20588;48.840;10.064;2024-03-08T01:12:47;96364.00;;;1.99;nan
34328;BME280;20588;48.840;10.064;2024-03-08T01:15:13;96347.81;;;2.08;nan
34328;BME280;20588;48.840;10.064;2024-03-08T01:17:39;96355.28;;;1.93;nan
34328;BME280;20588;48.840;10.064;2024-03-08T01:20:06;96346.09;;;1.84;nan
34328;BME280;20588;48.840;10.064;2024-03-08T01:22:32;96349.13;;;1.79;nan
34328;BME280;20588;48.840;10.064;2024-03-08T01:24:58;96344.22;;;1.78;nan
34328;BME280;20588;48.840;10.064;2024-03-08T01:27:24;96336.44;;;1.79;nan
34328;BME280;20588;48.840;10.064;2024-03-08T01:29:50;96338.19;;;1.79;nan
34328;BME280;20588;48.840;10.064;2024-03-08T01:32:17;96335.19;;;1.75;nan
34328;BME280;20588;48.840;10.064;2024-03-08T01:34:43;96330.09;;;1.83;nan
34328;BME280;20588;48.840;10.064;2024-03-08T01:37:11;96331.53;;;1.86;nan
34328;BME280;20588;48.840;10.064;2024-03-08T01:39:37;96322.00;;;1.88;nan
34328;BME280;20588;48.840;10.064;2024-03-08T01:42:03;96318.69;;;1.88;nan
34328;BME280;20588;48.840;10.064;2024-03-08T01:44:29;96316.94;;;1.88;nan
34328;BME280;20588;48.840;10.064;2024-03-08T01:46:56;96315.84;;;1.91;nan
34328;BME280;20588;48.840;10.064;2024-03-08T01:49:22;96309.47;;;1.86;nan
34328;BME280;20588;48.840;10.064;2024-03-08T01:51:51;96301.75;;;1.80;nan
34328;BME280;20588;48.840;10.064;2024-03-08T01:54:18;96291.59;;;1.80;nan
34328;BME280;20588;48.840;10.064;2024-03-08T01:56:45;96299.06;;;1.73;nan
34328;BME280;20588;48.840;10.064;2024-03-08T01:59:12;96298.41;;;1.71;nan
34328;BME280;20588;48.840;10.064;2024-03-08T02:01:40;96287.97;;;1.66;nan
34328;BME280;20588;48.840;10.064;2024-03-08T02:04:07;96281.75;;;1.85;nan
34328;BME280;20588;48.840;10.064;2024-03-08T02:06:33;96276.53;;;1.78;nan
34328;BME280;20588;48.840;10.064;2024-03-08T02:08:59;96264.34;;;1.66;nan
34328;BME280;20588;48.840;10.064;2024-03-08T02:11:26;96271.47;;;1.78;nan
34328;BME280;20588;48.840;10.064;2024-03-08T02:13:52;96264.81;;;1.77;nan
34328;BME280;20588;48.840;10.064;2024-03-08T02:16:23;96266.72;;;1.75;nan
34328;BME280;20588;48.840;10.064;2024-03-08T02:18:49;96265.75;;;1.84;nan
34328;BME280;20588;48.840;10.064;2024-03-08T02:21:17;96262.84;;;1.96;nan
34328;BME280;20588;48.840;10.064;2024-03-08T02:23:47;96264.94;;;1.84;nan
34328;BME280;20588;48.840;10.064;2024-03-08T02:26:13;96259.06;;;1.92;nan
34328;BME280;20588;48.840;10.064;2024-03-08T02:28:39;96264.13;;;2.00;nan
34328;BME280;20588;48.840;10.064;2024-03-08T02:31:05;96259.22;;;1.90;nan
34328;BME280;20588;48.840;10.064;2024-03-08T02:33:34;96259.88;;;1.92;nan
34328;BME280;20588;48.840;10.064;2024-03-08T02:36:00;96250.81;;;1.89;nan
34328;BME280;20588;48.840;10.064;2024-03-08T02:38:26;96253.56;;;1.80;nan
34328;BME280;20588;48.840;10.064;2024-03-08T02:40:53;96249.75;;;1.76;nan
34328;BME280;20588;48.840;10.064;2024-03-08T02:43:21;96249.94;;;1.66;nan
34328;BME280;20588;48.840;10.064;2024-03-08T02:45:50;96251.19;;;1.78;nan
34328;BME280;20588;48.840;10.064;2024-03-08T02:48:19;96246.78;;;1.72;nan
34328;BME280;20588;48.840;10.064;2024-03-08T02:50:45;96235.84;;;1.64;nan
34328;BME280;20588;48.840;10.064;2024-03-08T02:53:12;96232.31;;;1.89;nan
34328;BME280;20588;48.840;10.064;2024-03-08T02:55:38;96240.75;;;1.65;nan
34328;BME280;20588;48.840;10.064;2024-03-08T02:58:05;96244.25;;;1.64;nan
34328;BME280;20588;48.840;10.064;2024-03-08T03:00:31;96242.66;;;1.63;nan
34328;BME280;20588;48.840;10.064;2024-03-08T03:02:58;96235.50;;;1.83;nan
34328;BME280;20588;48.840;10.064;2024-03-08T03:05:24;96237.81;;;1.92;nan
34328;BME280;20588;48.840;10.064;2024-03-08T03:07:51;96230.25;;;1.76;nan
34328;BME280;20588;48.840;10.064;2024-03-08T03:10:17;96230.44;;;1.67;nan
34328;BME280;20588;48.840;10.064;2024-03-08T03:12:47;96229.34;;;1.61;nan
34328;BME280;20588;48.840;10.064;2024-03-08T03:15:14;96219.38;;;1.68;nan
34328;BME280;20588;48.840;10.064;2024-03-08T03:17:48;96213.91;;;1.79;nan
34328;BME280;20588;48.840;10.064;2024-03-08T03:20:17;96220.38;;;1.89;nan
34328;BME280;20588;48.840;10.064;2024-03-08T03:22:49;96219.44;;;1.91;nan
34328;BME280;20588;48.840;10.064;2024-03-08T03:25:19;96222.16;;;1.89;nan
34328;BME280;20588;48.840;10.064;2024-03-08T03:27:49;96220.75;;;1.78;nan
34328;BME280;20588;48.840;10.064;2024-03-08T03:30:16;96223.63;;;1.75;nan
34328;BME280;20588;48.840;10.064;2024-03-08T03:32:51;96225.34;;;1.75;nan
34328;BME280;20588;48.840;10.064;2024-03-08T03:35:21;96212.81;;;1.81;nan
34328;BME280;20588;48.840;10.064;2024-03-08T03:37:47;96218.81;;;1.88;nan
34328;BME280;20588;48.840;10.064;2024-03-08T03:40:33;96214.72;;;1.88;nan
34328;BME280;20588;48.840;10.064;2024-03-08T03:43:00;96216.00;;;1.75;nan
34328;BME280;20588;48.840;10.064;2024-03-08T03:45:26;96204.75;;;1.70;nan
34328;BME280;20588;48.840;10.064;2024-03-08T03:47:52;96207.13;;;1.71;nan
34328;BME280;20588;48.840;10.064;2024-03-08T03:50:19;96207.59;;;1.75;nan
34328;BME280;20588;48.840;10.064;2024-03-08T03:52:46;96211.59;;;1.69;nan
34328;BME280;20588;48.840;10.064;2024-03-08T03:55:12;96210.63;;;1.70;nan
34328;BME280;20588;48.840;10.064;2024-03-08T03:57:39;96209.81;;;1.78;nan
34328;BME280;20588;48.840;10.064;2024-03-08T04:00:06;96206.78;;;1.82;nan
34328;BME280;20588;48.840;10.064;2024-03-08T04:02:37;96196.88;;;2.04;nan
34328;BME280;20588;48.840;10.064;2024-03-08T04:05:04;96204.03;;;2.00;nan
34328;BME280;20588;48.840;10.064;2024-03-08T04:07:30;96210.88;;;1.92;nan
34328;BME280;20588;48.840;10.064;2024-03-08T04:09:57;96201.66;;;1.99;nan
34328;BME280;20588;48.840;10.064;2024-03-08T04:12:23;96199.28;;;1.97;nan
34328;BME280;20588;48.840;10.064;2024-03-08T04:14:49;96195.91;;;2.05;nan
34328;BME280;20588;48.840;10.064;2024-03-08T04:17:15;96194.81;;;2.07;nan
34328;BME280;20588;48.840;10.064;2024-03-08T04:19:42;96198.28;;;2.06;nan
34328;BME280;20588;48.840;10.064;2024-03-08T04:22:09;96188.28;;;2.13;nan
34328;BME280;20588;48.840;10.064;2024-03-08T04:24:35;96187.31;;;2.14;nan
34328;BME280;20588;48.840;10.064;2024-03-08T04:27:01;96188.94;;;2.07;nan
34328;BME280;20588;48.840;10.064;2024-03-08T04:29:27;96186.25;;;2.08;nan
34328;BME280;20588;48.840;10.064;2024-03-08T04:31:53;96191.63;;;2.05;nan
34328;BME280;20588;48.840;10.064;2024-03-08T04:34:20;96178.97;;;2.05;nan
34328;BME280;20588;48.840;10.064;2024-03-08T04:36:47;96179.75;;;2.06;nan
34328;BME280;20588;48.840;10.064;2024-03-08T04:39:13;96182.56;;;2.11;nan
34328;BME280;20588;48.840;10.064;2024-03-08T04:41:44;96186.41;;;2.07;nan
34328;BME280;20588;48.840;10.064;2024-03-08T04:44:11;96191.94;;;2.10;nan
34328;BME280;20588;48.840;10.064;2024-03-08T04:46:38;96196.06;;;2.11;nan
34328;BME280;20588;48.840;10.064;2024-03-08T04:49:04;96189.16;;;2.28;nan
34328;BME280;20588;48.840;10.064;2024-03-08T04:51:30;96193.00;;;2.24;nan
34328;BME280;20588;48.840;10.064;2024-03-08T04:53:56;96188.53;;;2.26;nan
34328;BME280;20588;48.840;10.064;2024-03-08T04:56:23;96185.25;;;2.17;nan
34328;BME280;20588;48.840;10.064;2024-03-08T04:58:49;96180.94;;;2.26;nan
34328;BME280;20588;48.840;10.064;2024-03-08T05:01:15;96175.03;;;2.33;nan
34328;BME280;20588;48.840;10.064;2024-03-08T05:03:41;96163.97;;;2.18;nan
34328;BME280;20588;48.840;10.064;2024-03-08T05:06:07;96165.25;;;2.22;nan
34328;BME280;20588;48.840;10.064;2024-03-08T05:08:33;96170.81;;;2.18;nan
34328;BME280;20588;48.840;10.064;2024-03-08T05:11:00;96157.66;;;2.14;nan
34328;BME280;20588;48.840;10.064;2024-03-08T05:13:31;96153.38;;;2.15;nan
34328;BME280;20588;48.840;10.064;2024-03-08T05:15:57;96158.13;;;2.18;nan
34328;BME280;20588;48.840;10.064;2024-03-08T05:18:24;96150.81;;;2.23;nan
34328;BME280;20588;48.840;10.064;2024-03-08T05:20:50;96146.72;;;2.14;nan
34328;BME280;20588;48.840;10.064;2024-03-08T05:23:17;96149.41;;;2.12;nan
34328;BME280;20588;48.840;10.064;2024-03-08T05:25:45;96147.81;;;2.19;nan
34328;BME280;20588;48.840;10.064;2024-03-08T05:28:14;96163.66;;;2.21;nan
34328;BME280;20588;48.840;10.064;2024-03-08T05:30:40;96152.69;;;2.29;nan
34328;BME280;20588;48.840;10.064;2024-03-08T05:33:07;96149.72;;;2.17;nan
34328;BME280;20588;48.840;10.064;2024-03-08T05:35:36;96143.28;;;2.07;nan
34328;BME280;20588;48.840;10.064;2024-03-08T05:38:02;96145.19;;;2.05;nan
34328;BME280;20588;48.840;10.064;2024-03-08T05:40:28;96155.00;;;2.08;nan
34328;BME280;20588;48.840;10.064;2024-03-08T05:42:58;96142.59;;;2.13;nan
34328;BME280;20588;48.840;10.064;2024-03-08T05:45:25;96141.78;;;2.20;nan
34328;BME280;20588;48.840;10.064;2024-03-08T05:47:52;96144.81;;;2.16;nan
34328;BME280;20588;48.840;10.064;2024-03-08T05:50:18;96146.13;;;2.12;nan
34328;BME280;20588;48.840;10.064;2024-03-08T05:52:45;96145.00;;;2.06;nan
34328;BME280;20588;48.840;10.064;2024-03-08T05:55:11;96147.72;;;2.05;nan
34328;BME280;20588;48.840;10.064;2024-03-08T05:57:40;96134.69;;;2.08;nan
34328;BME280;20588;48.840;10.064;2024-03-08T06:00:08;96148.47;;;2.13;nan
34328;BME280;20588;48.840;10.064;2024-03-08T06:02:37;96140.75;;;2.29;nan
34328;BME280;20588;48.840;10.064;2024-03-08T06:05:08;96145.31;;;2.11;nan
34328;BME280;20588;48.840;10.064;2024-03-08T06:07:34;96145.97;;;2.05;nan
34328;BME280;20588;48.840;10.064;2024-03-08T06:10:00;96143.47;;;1.97;nan
34328;BME280;20588;48.840;10.064;2024-03-08T06:12:26;96146.13;;;2.12;nan
34328;BME280;20588;48.840;10.064;2024-03-08T06:14:54;96151.22;;;2.04;nan
34328;BME280;20588;48.840;10.064;2024-03-08T06:17:20;96142.31;;;2.08;nan
34328;BME280;20588;48.840;10.064;2024-03-08T06:19:51;96141.75;;;1.98;nan
34328;BME280;20588;48.840;10.064;2024-03-08T06:22:18;96135.44;;;1.94;nan
34328;BME280;20588;48.840;10.064;2024-03-08T06:24:45;96141.28;;;1.94;nan
34328;BME280;20588;48.840;10.064;2024-03-08T06:27:11;96145.91;;;2.21;nan
34328;BME280;20588;48.840;10.064;2024-03-08T06:29:37;96152.09;;;2.19;nan
34328;BME280;20588;48.840;10.064;2024-03-08T06:32:03;96154.72;;;2.03;nan
34328;BME280;20588;48.840;10.064;2024-03-08T06:34:32;96155.63;;;2.10;nan
34328;BME280;20588;48.840;10.064;2024-03-08T06:36:58;96155.88;;;2.23;nan
34328;BME280;20588;48.840;10.064;2024-03-08T06:39:26;96150.06;;;2.14;nan
34328;BME280;20588;48.840;10.064;2024-03-08T06:41:53;96146.94;;;2.04;nan
34328;BME280;20588;48.840;10.064;2024-03-08T06:44:19;96151.13;;;2.20;nan
34328;BME280;20588;48.840;10.064;2024-03-08T06:46:47;96150.25;;;2.05;nan
34328;BME280;20588;48.840;10.064;2024-03-08T06:49:14;96149.75;;;2.09;nan
34328;BME280;20588;48.840;10.064;2024-03-08T06:51:41;96153.44;;;2.07;nan
34328;BME280;20588;48.840;10.064;2024-03-08T06:54:07;96150.69;;;1.85;nan
34328;BME280;20588;48.840;10.064;2024-03-08T06:56:37;96156.31;;;1.96;nan
34328;BME280;20588;48.840;10.064;2024-03-08T06:59:04;96150.66;;;1.94;nan
34328;BME280;20588;48.840;10.064;2024-03-08T07:01:30;96137.81;;;1.87;nan
34328;BME280;20588;48.840;10.064;2024-03-08T07:04:00;96138.06;;;2.00;nan
34328;BME280;20588;48.840;10.064;2024-03-08T07:06:31;96151.25;;;1.96;nan
34328;BME280;20588;48.840;10.064;2024-03-08T07:08:59;96148.09;;;1.94;nan
34328;BME280;20588;48.840;10.064;2024-03-08T07:11:25;96153.44;;;1.99;nan
34328;BME280;20588;48.840;10.064;2024-03-08T07:13:51;96155.94;;;2.15;nan
34328;BME280;20588;48.840;10.064;2024-03-08T07:16:17;96148.69;;;2.04;nan
34328;BME280;20588;48.840;10.064;2024-03-08T07:18:43;96144.00;;;2.15;nan
34328;BME280;20588;48.840;10.064;2024-03-08T07:21:09;96137.31;;;2.22;nan
34328;BME280;20588;48.840;10.064;2024-03-08T07:23:38;96134.00;;;2.22;nan
34328;BME280;20588;48.840;10.064;2024-03-08T07:26:28;96130.78;;;2.28;nan
34328;BME280;20588;48.840;10.064;2024-03-08T07:28:55;96137.66;;;2.19;nan
34328;BME280;20588;48.840;10.064;2024-03-08T07:31:21;96118.06;;;2.36;nan
34328;BME280;20588;48.840;10.064;2024-03-08T07:33:53;96128.59;;;2.25;nan
34328;BME280;20588;48.840;10.064;2024-03-08T07:36:19;96113.94;;;2.35;nan
34328;BME280;20588;48.840;10.064;2024-03-08T07:38:45;96124.19;;;2.41;nan
34328;BME280;20588;48.840;10.064;2024-03-08T07:41:12;96127.13;;;2.30;nan
34328;BME280;20588;48.840;10.064;2024-03-08T07:43:39;96126.50;;;2.51;nan
34328;BME280;20588;48.840;10.064;2024-03-08T07:46:05;96128.19;;;2.36;nan
34328;BME280;20588;48.840;10.064;2024-03-08T07:48:31;96117.94;;;2.29;nan
34328;BME280;20588;48.840;10.064;2024-03-08T07:50:57;96114.88;;;2.34;nan
34328;BME280;20588;48.840;10.064;2024-03-08T07:53:23;96110.38;;;2.21;nan
34328;BME280;20588;48.840;10.064;2024-03-08T07:55:52;96107.94;;;2.28;nan
34328;BME280;20588;48.840;10.064;2024-03-08T07:58:18;96111.41;;;2.35;nan
34328;BME280;20588;48.840;10.064;2024-03-08T08:00:44;96110.38;;;2.44;nan
34328;BME280;20588;48.840;10.064;2024-03-08T08:03:10;96098.75;;;2.49;nan
34328;BME280;20588;48.840;10.064;2024-03-08T08:05:36;96110.66;;;2.49;nan
34328;BME280;20588;48.840;10.064;2024-03-08T08:08:05;96112.59;;;2.47;nan
34328;BME280;20588;48.840;10.064;2024-03-08T08:10:33;96095.75;;;2.46;nan
34328;BME280;20588;48.840;10.064;2024-03-08T08:12:59;96105.41;;;2.50;nan
34328;BME280;20588;48.840;10.064;2024-03-08T08:15:25;96105.22;;;2.52;nan
34328;BME280;20588;48.840;10.064;2024-03-08T08:17:51;96092.81;;;2.57;nan
34328;BME280;20588;48.840;10.064;2024-03-08T08:20:17;96089.25;;;2.66;nan
34328;BME280;20588;48.840;10.064;2024-03-08T08:22:44;96092.50;;;2.74;nan
34328;BME280;20588;48.840;10.064;2024-03-08T08:25:10;96088.16;;;2.83;nan
34328;BME280;20588;48.840;10.064;2024-03-08T08:27:41;96088.16;;;2.97;nan
34328;BME280;20588;48.840;10.064;2024-03-08T08:30:08;96096.69;;;3.04;nan
34328;BME280;20588;48.840;10.064;2024-03-08T08:32:35;96076.34;;;2.90;nan
34328;BME280;20588;48.840;10.064;2024-03-08T08:35:12;96078.00;;;2.97;nan
34328;BME280;20588;48.840;10.064;2024-03-08T08:37:39;96077.06;;;2.98;nan
34328;BME280;20588;48.840;10.064;2024-03-08T08:40:06;96071.25;;;2.90;nan
34328;BME280;20588;48.840;10.064;2024-03-08T08:42:35;96072.16;;;2.97;nan
34328;BME280;20588;48.840;10.064;2024-03-08T08:45:01;96072.25;;;3.18;nan
34328;BME280;20588;48.840;10.064;2024-03-08T08:47:27;96062.25;;;3.16;nan
34328;BME280;20588;48.840;10.064;2024-03-08T08:49:54;96080.47;;;3.20;nan
34328;BME280;20588;48.840;10.064;2024-03-08T08:52:20;96075.22;;;3.21;nan
34328;BME280;20588;48.840;10.064;2024-03-08T08:54:46;96078.97;;;3.11;nan
34328;BME280;20588;48.840;10.064;2024-03-08T08:57:12;96075.75;;;3.02;nan
34328;BME280;20588;48.840;10.064;2024-03-08T08:59:39;96074.59;;;3.05;nan
34328;BME280;20588;48.840;10.064;2024-03-08T09:02:06;96071.47;;;3.03;nan
34328;BME280;20588;48.840;10.064;2024-03-08T09:04:32;96062.78;;;3.26;nan
34328;BME280;20588;48.840;10.064;2024-03-08T09:06:58;96073.91;;;3.25;nan
34328;BME280;20588;48.840;10.064;2024-03-08T09:09:24;96064.88;;;3.37;nan
34328;BME280;20588;48.840;10.064;2024-03-08T09:11:51;96066.44;;;3.38;nan
34328;BME280;20588;48.840;10.064;2024-03-08T09:14:18;96058.72;;;3.46;nan
34328;BME280;20588;48.840;10.064;2024-03-08T09:16:46;96054.50;;;3.53;nan
34328;BME280;20588;48.840;10.064;2024-03-08T09:19:13;96057.06;;;3.53;nan
34328;BME280;20588;48.840;10.064;2024-03-08T09:21:39;96057.25;;;3.88;nan
34328;BME280;20588;48.840;10.064;2024-03-08T09:24:06;96048.97;;;3.64;nan
34328;BME280;20588;48.840;10.064;2024-03-08T09:26:35;96049.75;;;3.65;nan
34328;BME280;20588;48.840;10.064;2024-03-08T09:29:01;96053.72;;;3.53;nan
34328;BME280;20588;48.840;10.064;2024-03-08T09:31:27;96046.69;;;3.69;nan
34328;BME280;20588;48.840;10.064;2024-03-08T09:33:53;96048.16;;;3.64;nan
34328;BME280;20588;48.840;10.064;2024-03-08T09:36:19;96042.09;;;3.80;nan
34328;BME280;20588;48.840;10.064;2024-03-08T09:38:46;96044.53;;;3.88;nan
34328;BME280;20588;48.840;10.064;2024-03-08T09:41:13;96039.56;;;4.22;nan
34328;BME280;20588;48.840;10.064;2024-03-08T09:43:39;96034.06;;;4.67;nan
34328;BME280;20588;48.840;10.064;2024-03-08T09:46:06;96031.38;;;4.75;nan
34328;BME280;20588;48.840;10.064;2024-03-08T09:48:33;96029.06;;;4.80;nan
34328;BME280;20588;48.840;10.064;2024-03-08T09:51:00;96034.50;;;5.04;nan
34328;BME280;20588;48.840;10.064;2024-03-08T09:53:26;96027.34;;;5.21;nan
34328;BME280;20588;48.840;10.064;2024-03-08T09:55:52;96024.91;;;5.06;nan
34328;BME280;20588;48.840;10.064;2024-03-08T09:58:18;96016.53;;;5.59;nan
34328;BME280;20588;48.840;10.064;2024-03-08T10:00:53;96017.06;;;6.02;nan
34328;BME280;20588;48.840;10.064;2024-03-08T10:03:20;96119.03;;;7.80;nan
34328;BME280;20588;48.840;10.064;2024-03-08T10:05:46;96008.34;;;7.14;nan
34328;BME280;20588;48.840;10.064;2024-03-08T10:08:12;96007.88;;;7.43;nan
34328;BME280;20588;48.840;10.064;2024-03-08T10:10:39;96002.16;;;7.48;nan
34328;BME280;20588;48.840;10.064;2024-03-08T10:13:09;96006.34;;;7.22;nan
34328;BME280;20588;48.840;10.064;2024-03-08T10:15:36;96007.19;;;7.10;nan
34328;BME280;20588;48.840;10.064;2024-03-08T10:18:02;96009.59;;;7.56;nan
34328;BME280;20588;48.840;10.064;2024-03-08T10:20:30;96009.22;;;7.52;nan
34328;BME280;20588;48.840;10.064;2024-03-08T10:22:59;96008.28;;;8.15;nan
34328;BME280;20588;48.840;10.064;2024-03-08T10:25:26;96007.19;;;8.60;nan
34328;BME280;20588;48.840;10.064;2024-03-08T10:27:52;96000.69;;;8.82;nan
34328;BME280;20588;48.840;10.064;2024-03-08T10:30:18;96018.50;;;8.28;nan
34328;BME280;20588;48.840;10.064;2024-03-08T10:32:48;96011.03;;;8.27;nan
34328;BME280;20588;48.840;10.064;2024-03-08T10:35:14;96010.72;;;9.08;nan
34328;BME280;20588;48.840;10.064;2024-03-08T10:37:46;96002.72;;;8.74;nan
34328;BME280;20588;48.840;10.064;2024-03-08T10:40:17;96000.53;;;8.53;nan
34328;BME280;20588;48.840;10.064;2024-03-08T10:42:55;96001.59;;;9.31;nan
34328;BME280;20588;48.840;10.064;2024-03-08T10:45:38;95998.38;;;9.17;nan
34328;BME280;20588;48.840;10.064;2024-03-08T10:48:28;95995.81;;;9.17;nan
34328;BME280;20588;48.840;10.064;2024-03-08T10:51:04;95988.50;;;9.68;nan
34328;BME280;20588;48.840;10.064;2024-03-08T10:53:30;95993.63;;;9.68;nan
34328;BME280;20588;48.840;10.064;2024-03-08T10:55:58;95988.94;;;9.47;nan
34328;BME280;20588;48.840;10.064;2024-03-08T10:58:25;95987.56;;;9.92;nan
34328;BME280;20588;48.840;10.064;2024-03-08T11:00:56;95979.81;;;10.63;nan
34328;BME280;20588;48.840;10.064;2024-03-08T11:06:08;95976.34;;;10.80;nan
34328;BME280;20588;48.840;10.064;2024-03-08T11:08:36;95973.22;;;9.73;nan
34328;BME280;20588;48.840;10.064;2024-03-08T11:11:02;95972.66;;;10.53;nan
34328;BME280;20588;48.840;10.064;2024-03-08T11:13:38;95968.13;;;10.26;nan
34328;BME280;20588;48.840;10.064;2024-03-08T11:19:24;95946.50;;;10.04;nan
34328;BME280;20588;48.840;10.064;2024-03-08T11:22:01;95947.47;;;10.67;nan
34328;BME280;20588;48.840;10.064;2024-03-08T11:24:36;95943.00;;;10.85;nan
34328;BME280;20588;48.840;10.064;2024-03-08T11:27:04;95931.88;;;11.08;nan
34328;BME280;20588;48.840;10.064;2024-03-08T11:32:17;95935.84;;;10.41;nan
34328;BME280;20588;48.840;10.064;2024-03-08T11:34:48;95941.63;;;10.25;nan
34328;BME280;20588;48.840;10.064;2024-03-08T11:37:17;95936.88;;;9.70;nan
34328;BME280;20588;48.840;10.064;2024-03-08T11:39:48;95937.19;;;9.91;nan
34328;BME280;20588;48.840;10.064;2024-03-08T11:42:15;95932.38;;;10.36;nan
34328;BME280;20588;48.840;10.064;2024-03-08T11:44:48;95933.94;;;10.37;nan
34328;BME280;20588;48.840;10.064;2024-03-08T11:47:15;95917.84;;;10.64;nan
34328;BME280;20588;48.840;10.064;2024-03-08T11:49:42;95922.66;;;10.61;nan
34328;BME280;20588;48.840;10.064;2024-03-08T11:52:15;95914.91;;;11.35;nan
34328;BME280;20588;48.840;10.064;2024-03-08T11:54:41;95921.34;;;11.49;nan
34328;BME280;20588;48.840;10.064;2024-03-08T11:57:09;95910.97;;;11.72;nan
34328;BME280;20588;48.840;10.064;2024-03-08T11:59:36;95904.94;;;11.67;nan
34328;BME280;20588;48.840;10.064;2024-03-08T12:02:06;95906.25;;;11.41;nan
34328;BME280;20588;48.840;10.064;2024-03-08T12:04:33;95895.38;;;11.51;nan
34328;BME280;20588;48.840;10.064;2024-03-08T12:07:02;95891.44;;;11.48;nan
34328;BME280;20588;48.840;10.064;2024-03-08T12:09:35;95875.69;;;12.22;nan
34328;BME280;20588;48.840;10.064;2024-03-08T12:12:02;95880.31;;;12.75;nan
34328;BME280;20588;48.840;10.064;2024-03-08T12:14:30;95880.09;;;12.05;nan
34328;BME280;20588;48.840;10.064;2024-03-08T12:16:57;95876.91;;;11.42;nan
34328;BME280;20588;48.840;10.064;2024-03-08T12:19:23;95873.53;;;11.25;nan
34328;BME280;20588;48.840;10.064;2024-03-08T12:21:50;95861.00;;;11.73;nan
34328;BME280;20588;48.840;10.064;2024-03-08T12:24:17;95869.66;;;11.56;nan
34328;BME280;20588;48.840;10.064;2024-03-08T12:26:47;95863.28;;;11.30;nan
34328;BME280;20588;48.840;10.064;2024-03-08T12:29:27;95859.78;;;11.36;nan
34328;BME280;20588;48.840;10.064;2024-03-08T12:31:55;95850.63;;;11.57;nan
34328;BME280;20588;48.840;10.064;2024-03-08T12:34:24;95846.78;;;11.87;nan
34328;BME280;20588;48.840;10.064;2024-03-08T12:36:52;95861.38;;;11.82;nan
34328;BME280;20588;48.840;10.064;2024-03-08T12:39:21;95853.34;;;11.78;nan
34328;BME280;20588;48.840;10.064;2024-03-08T12:41:56;95859.25;;;11.34;nan
34328;BME280;20588;48.840;10.064;2024-03-08T12:44:26;95844.22;;;11.59;nan
34328;BME280;20588;48.840;10.064;2024-03-08T12:46:54;95841.03;;;11.24;nan
34328;BME280;20588;48.840;10.064;2024-03-08T12:49:20;95846.66;;;11.49;nan
34328;BME280;20588;48.840;10.064;2024-03-08T12:51:48;95832.84;;;10.99;nan
34328;BME280;20588;48.840;10.064;2024-03-08T12:54:14;95823.47;;;11.21;nan
34328;BME280;20588;48.840;10.064;2024-03-08T12:56:40;95811.19;;;11.40;nan
34328;BME280;20588;48.840;10.064;2024-03-08T12:59:08;95802.63;;;11.23;nan
34328;BME280;20588;48.840;10.064;2024-03-08T13:01:34;95804.78;;;11.59;nan
34328;BME280;20588;48.840;10.064;2024-03-08T13:04:04;95806.03;;;11.84;nan
34328;BME280;20588;48.840;10.064;2024-03-08T13:06:32;95803.47;;;12.06;nan
34328;BME280;20588;48.840;10.064;2024-03-08T13:08:58;95793.84;;;12.18;nan
34328;BME280;20588;48.840;10.064;2024-03-08T13:11:26;95791.28;;;12.01;nan
34328;BME280;20588;48.840;10.064;2024-03-08T13:13:53;95796.69;;;11.83;nan
34328;BME280;20588;48.840;10.064;2024-03-08T13:16:19;95793.44;;;11.71;nan
34328;BME280;20588;48.840;10.064;2024-03-08T13:18:48;95799.34;;;11.55;nan
34328;BME280;20588;48.840;10.064;2024-03-08T13:21:15;95799.91;;;11.29;nan
34328;BME280;20588;48.840;10.064;2024-03-08T13:23:44;95799.78;;;11.08;nan
34328;BME280;20588;48.840;10.064;2024-03-08T13:26:15;95792.03;;;11.19;nan
34328;BME280;20588;48.840;10.064;2024-03-08T13:28:50;95785.22;;;11.13;nan
34328;BME280;20588;48.840;10.064;2024-03-08T13:31:19;95770.97;;;11.22;nan